Time;durP1;ratioP1;P1;durP2;ratioP2;P2;SDS_P1;SDS_P2;PMS_P1;PMS_P2;Temp;Humidity;BMP_temperature;BMP_pressure;BME280_temperature;BME280_humidity;BME280_pressure;Samples;Min_cycle;Max_cycle;Signal;HPM_P1;HPM_P2
2022/03/24 00:00:27;;;;;;;;;;;;;;;1.53;100.00;96767.44;1039243;28;19939;-72
2022/03/24 00:00:57;;;;;;;;;;;;;;;1.68;100.00;96801.03;1039381;28;19921;-72
2022/03/24 00:01:27;;;;;;;;;;;;;;;1.65;100.00;96802.22;1039020;28;20003;-73
2022/03/24 00:01:58;;;;;;;;;;;;;;;1.62;100.00;96800.78;1034886;28;19972;-72
2022/03/24 00:02:28;;;;;;;;;;;;;;;1.63;100.00;96802.38;1035220;28;20318;-74
2022/03/24 00:02:58;;;;;;;;;;;;;;;1.64;100.00;96800.59;1034561;28;19924;-73
2022/03/24 00:03:29;;;;;;;;;;;;;;;1.63;100.00;96799.81;1034428;28;19991;-75
2022/03/24 00:03:59;;;;;;;;;;;;;;;1.58;100.00;96803.94;1039107;28;19955;-73
2022/03/24 00:04:30;;;;;;;;;;;;;;;1.55;100.00;96801.69;1031227;28;20361;-75
2022/03/24 00:05:00;;;;;;;;;;;;;;;1.51;100.00;96790.91;1035157;28;19938;-74
2022/03/24 00:05:31;;;;;;;;;;;;;;;1.49;100.00;96792.88;1031273;28;19956;-76
2022/03/24 00:06:02;;;;;;;;;;;;;;;1.49;100.00;96795.44;1035123;28;19932;-73
2022/03/24 00:06:33;;;;;;;;;;;;;;;1.47;100.00;96802.56;1039337;28;20226;-73
2022/03/24 00:07:04;;;;;;;;;;;;;;;1.46;100.00;96800.97;1039273;28;20386;-73
2022/03/24 00:07:35;;;;;;;;;;;;;;;1.45;100.00;96798.59;1039605;28;19920;-72
2022/03/24 00:08:06;;;;;;;;;;;;;;;1.45;100.00;96796.78;1039142;28;19917;-72
2022/03/24 00:08:36;;;;;;;;;;;;;;;1.46;100.00;96795.81;1030873;28;20337;-72
2022/03/24 00:09:06;;;;;;;;;;;;;;;1.50;100.00;96794.47;1030532;28;19918;-73
2022/03/24 00:09:37;;;;;;;;;;;;;;;1.56;100.00;96798.13;1031007;28;19914;-72
2022/03/24 00:10:07;;;;;;;;;;;;;;;1.54;100.00;96792.31;1030974;28;19914;-72
2022/03/24 00:10:37;;;;;;;;;;;;;;;1.53;100.00;96796.69;1039236;28;20408;-72
2022/03/24 00:11:08;;;;;;;;;;;;;;;1.54;100.00;96794.91;1035126;28;19910;-72
2022/03/24 00:11:40;;;;;;;;;;;;;;;1.48;100.00;96799.03;1039112;28;19913;-72
2022/03/24 00:12:13;;;;;;;;;;;;;;;1.49;100.00;96797.25;1039007;28;19925;-72
2022/03/24 00:12:44;;;;;;;;;;;;;;;1.47;100.00;96802.56;1040297;28;20406;-71
2022/03/24 00:13:15;;;;;;;;;;;;;;;1.49;100.00;96792.88;1042728;28;19952;-72
2022/03/24 00:13:45;;;;;;;;;;;;;;;1.49;100.00;96800.63;1039778;28;20227;-72
2022/03/24 00:14:18;;;;;;;;;;;;;;;1.51;100.00;96793.50;1043194;28;19913;-71
2022/03/24 00:14:49;;;;;;;;;;;;;;;1.52;100.00;96799.47;1035476;28;20350;-73
2022/03/24 00:15:19;;;;;;;;;;;;;;;1.49;100.00;96790.28;1038948;28;19943;-71
2022/03/24 00:15:50;;;;;;;;;;;;;;;1.51;100.00;96803.00;1035188;28;20000;-73
2022/03/24 00:16:20;;;;;;;;;;;;;;;1.51;100.00;96797.84;1027223;28;20438;-71
2022/03/24 00:16:51;;;;;;;;;;;;;;;1.52;100.00;96796.88;1035026;28;20450;-72
2022/03/24 00:17:24;;;;;;;;;;;;;;;1.53;100.00;96801.06;1035006;28;20055;-73
2022/03/24 00:17:54;;;;;;;;;;;;;;;1.51;100.00;96797.84;1035458;28;20375;-71
2022/03/24 00:18:25;;;;;;;;;;;;;;;1.49;100.00;96795.44;1039084;28;19917;-72
2022/03/24 00:18:55;;;;;;;;;;;;;;;1.49;100.00;96794.66;1030418;28;19922;-69
2022/03/24 00:19:26;;;;;;;;;;;;;;;1.48;100.00;96796.44;1030767;28;20166;-72
2022/03/24 00:19:59;;;;;;;;;;;;;;;1.47;100.00;96799.97;1030920;28;20387;-72
2022/03/24 00:20:29;;;;;;;;;;;;;;;1.48;100.00;96799.03;1031848;28;19972;-72
2022/03/24 00:20:59;;;;;;;;;;;;;;;1.44;100.00;96790.00;1035181;28;19972;-71
2022/03/24 00:21:29;;;;;;;;;;;;;;;1.45;100.00;96794.22;1039372;28;19971;-71
2022/03/24 00:22:00;;;;;;;;;;;;;;;1.49;100.00;96795.44;1038968;28;20167;-71
2022/03/24 00:22:30;;;;;;;;;;;;;;;1.59;100.00;96792.59;1039195;28;20008;-72
2022/03/24 00:23:01;;;;;;;;;;;;;;;1.32;100.00;96757.84;1038936;28;20371;-74
2022/03/24 00:23:32;;;;;;;;;;;;;;;1.53;100.00;96794.09;1035130;28;19925;-72
2022/03/24 00:24:02;;;;;;;;;;;;;;;1.54;100.00;96793.16;1039315;28;19928;-72
2022/03/24 00:24:32;;;;;;;;;;;;;;;1.49;100.00;96790.28;1038516;28;19943;-73
2022/03/24 00:25:03;;;;;;;;;;;;;;;1.56;100.00;96791.16;1039963;28;19975;-72
2022/03/24 00:25:33;;;;;;;;;;;;;;;1.59;100.00;96793.38;1044199;28;20400;-72
2022/03/24 00:26:03;;;;;;;;;;;;;;;1.54;100.00;96790.56;1043922;28;19920;-72
2022/03/24 00:26:34;;;;;;;;;;;;;;;1.53;100.00;96785.53;1040405;28;20027;-74
2022/03/24 00:27:05;;;;;;;;;;;;;;;1.62;100.00;96792.25;1035551;28;19936;-73
2022/03/24 00:27:35;;;;;;;;;;;;;;;1.71;100.00;96787.75;1032157;28;20286;-72
2022/03/24 00:28:06;;;;;;;;;;;;;;;1.79;100.00;96785.88;1031088;28;19969;-72
2022/03/24 00:28:36;;;;;;;;;;;;;;;1.86;100.00;96785.97;1031652;28;19922;-72
2022/03/24 00:29:09;;;;;;;;;;;;;;;1.95;100.00;96789.25;1026762;28;19918;-70
2022/03/24 00:29:39;;;;;;;;;;;;;;;2.00;100.00;96792.88;1031496;28;19949;-72
2022/03/24 00:30:10;;;;;;;;;;;;;;;1.96;100.00;96794.22;1035630;28;20379;-72
2022/03/24 00:30:44;;;;;;;;;;;;;;;1.86;100.00;96785.97;1031815;28;20028;-72
2022/03/24 00:31:14;;;;;;;;;;;;;;;1.83;100.00;96781.13;1032126;28;19981;-71
2022/03/24 00:31:45;;;;;;;;;;;;;;;1.79;100.00;96785.09;1031379;28;20315;-72
2022/03/24 00:32:15;;;;;;;;;;;;;;;1.79;100.00;96782.50;1031091;28;19914;-72
2022/03/24 00:32:45;;;;;;;;;;;;;;;1.86;100.00;96785.97;1027508;28;19914;-73
2022/03/24 00:33:16;;;;;;;;;;;;;;;1.80;100.00;96781.50;1031274;28;20295;-73
2022/03/24 00:33:46;;;;;;;;;;;;;;;1.71;100.00;96787.75;1039557;28;20011;-73
2022/03/24 00:34:18;;;;;;;;;;;;;;;1.47;100.00;96745.69;1035146;28;19981;-71
2022/03/24 00:34:48;;;;;;;;;;;;;;;1.64;100.00;96785.91;1039369;28;19952;-72
2022/03/24 00:35:18;;;;;;;;;;;;;;;1.58;100.00;96784.03;1035225;28;20461;-71
2022/03/24 00:35:49;;;;;;;;;;;;;;;1.58;100.00;96783.25;1035659;28;20354;-72
2022/03/24 00:36:20;;;;;;;;;;;;;;;1.60;100.00;96782.06;1035155;28;19952;-71
2022/03/24 00:36:50;;;;;;;;;;;;;;;1.67;100.00;96789.09;1031614;28;20018;-72
2022/03/24 00:37:20;;;;;;;;;;;;;;;1.60;100.00;96787.22;1030846;28;19928;-72
2022/03/24 00:37:51;;;;;;;;;;;;;;;1.58;100.00;96789.22;1027311;28;19929;-73
2022/03/24 00:38:21;;;;;;;;;;;;;;;1.54;100.00;96777.63;1035203;28;19995;-72
2022/03/24 00:38:55;;;;;;;;;;;;;;;1.54;100.00;96782.78;1035211;28;20188;-71
2022/03/24 00:39:25;;;;;;;;;;;;;;;1.49;100.00;96779.94;1030883;28;19913;-71
2022/03/24 00:39:55;;;;;;;;;;;;;;;1.51;100.00;96782.31;1031005;28;19925;-71
2022/03/24 00:40:25;;;;;;;;;;;;;;;1.49;100.00;96782.50;1031828;28;19953;-73
2022/03/24 00:40:56;;;;;;;;;;;;;;;1.47;100.00;96787.06;1034696;28;20413;-74
2022/03/24 00:41:28;;;;;;;;;;;;;;;1.43;100.00;96785.81;1040811;28;20275;-71
2022/03/24 00:42:02;;;;;;;;;;;;;;;1.40;100.00;96781.78;1039019;28;19936;-73
2022/03/24 00:42:32;;;;;;;;;;;;;;;1.43;100.00;96780.63;1031702;28;19914;-73
2022/03/24 00:43:03;;;;;;;;;;;;;;;1.42;100.00;96776.47;1034931;28;19913;-73
2022/03/24 00:43:33;;;;;;;;;;;;;;;1.41;100.00;96775.66;1031450;28;19914;-72
2022/03/24 00:44:03;;;;;;;;;;;;;;;1.46;100.00;96777.69;1030902;28;20302;-71
2022/03/24 00:44:34;;;;;;;;;;;;;;;1.49;100.00;96774.75;1031143;28;19918;-74
2022/03/24 00:45:10;;;;;;;;;;;;;;;1.47;100.00;96776.72;1034401;28;19926;-71
2022/03/24 00:45:40;;;;;;;;;;;;;;;1.48;100.00;96786.09;1039932;28;19916;-73
2022/03/24 00:46:11;;;;;;;;;;;;;;;1.55;100.00;96781.00;1035923;28;19910;-72
2022/03/24 00:46:41;;;;;;;;;;;;;;;1.56;100.00;96775.66;1039029;28;19922;-72
2022/03/24 00:47:11;;;;;;;;;;;;;;;1.54;100.00;96777.63;1031257;28;19945;-72
2022/03/24 00:47:44;;;;;;;;;;;;;;;1.55;100.00;96781.00;1035456;28;19918;-74
2022/03/24 00:48:16;;;;;;;;;;;;;;;1.53;100.00;96773.41;1038941;28;20546;-72
2022/03/24 00:48:46;;;;;;;;;;;;;;;1.50;100.00;96778.94;1035334;28;20387;-73
2022/03/24 00:49:17;;;;;;;;;;;;;;;1.46;100.00;96780.28;1034186;28;19922;-72
2022/03/24 00:49:47;;;;;;;;;;;;;;;1.46;100.00;96779.50;1034943;28;19929;-72
2022/03/24 00:50:18;;;;;;;;;;;;;;;1.42;100.00;96779.03;1035133;28;20397;-71
2022/03/24 00:50:51;;;;;;;;;;;;;;;1.47;100.00;96783.66;1036167;28;20442;-71
2022/03/24 00:51:22;;;;;;;;;;;;;;;1.42;100.00;96779.03;1042737;28;20015;-72
2022/03/24 00:51:52;;;;;;;;;;;;;;;1.38;100.00;96783.78;1043079;28;19984;-72
2022/03/24 00:52:22;;;;;;;;;;;;;;;1.40;100.00;96775.81;1039126;28;20155;-73
2022/03/24 00:52:53;;;;;;;;;;;;;;;1.41;100.00;96777.44;1039250;28;19964;-71
2022/03/24 00:53:23;;;;;;;;;;;;;;;1.50;100.00;96776.34;1041180;28;19921;-71
2022/03/24 00:53:54;;;;;;;;;;;;;;;1.44;100.00;96771.91;1043182;28;19921;-72
2022/03/24 00:54:25;;;;;;;;;;;;;;;1.43;100.00;96772.88;1039184;28;19913;-73
2022/03/24 00:54:55;;;;;;;;;;;;;;;1.41;100.00;96770.50;1039109;28;19921;-72
2022/03/24 00:55:25;;;;;;;;;;;;;;;1.39;100.00;96775.03;1039191;28;19995;-72
2022/03/24 00:55:59;;;;;;;;;;;;;;;1.39;100.00;96769.84;1039438;28;20016;-73
2022/03/24 00:56:30;;;;;;;;;;;;;;;1.37;100.00;96776.19;1047750;28;19924;-72
2022/03/24 00:57:01;;;;;;;;;;;;;;;1.32;100.00;96774.13;1039231;28;19959;-74
2022/03/24 00:57:31;;;;;;;;;;;;;;;1.32;100.00;96773.34;1039050;28;19917;-72
2022/03/24 00:58:02;;;;;;;;;;;;;;;1.28;100.00;96766.94;1035091;28;19925;-72
2022/03/24 00:58:32;;;;;;;;;;;;;;;1.25;100.00;96773.25;1037374;28;20350;-73
2022/03/24 00:59:03;;;;;;;;;;;;;;;1.27;100.00;96771.28;1038411;28;20361;-71
2022/03/24 00:59:33;;;;;;;;;;;;;;;1.22;100.00;96770.22;1039072;28;20006;-72
2022/03/24 01:00:04;;;;;;;;;;;;;;;1.21;100.00;96771.19;1038956;28;19928;-72
2022/03/24 01:00:36;;;;;;;;;;;;;;;1.21;100.00;96766.00;1034861;28;20020;-73
2022/03/24 01:01:10;;;;;;;;;;;;;;;1.19;100.00;96768.78;1031137;28;19968;-73
2022/03/24 01:01:41;;;;;;;;;;;;;;;1.18;100.00;96768.00;1031591;28;19924;-73
2022/03/24 01:02:11;;;;;;;;;;;;;;;1.12;100.00;96760.94;1031905;28;20331;-73
2022/03/24 01:02:43;;;;;;;;;;;;;;;1.10;100.00;96765.47;1023524;28;19965;-71
2022/03/24 01:03:14;;;;;;;;;;;;;;;1.10;100.00;96765.47;1022878;29;19957;-70
2022/03/24 01:03:44;;;;;;;;;;;;;;;1.06;100.00;96769.41;1027695;28;19914;-73
2022/03/24 01:04:15;;;;;;;;;;;;;;;1.05;100.00;96767.81;1029351;28;19922;-71
2022/03/24 01:04:46;;;;;;;;;;;;;;;1.07;100.00;96763.25;1035575;28;19921;-72
2022/03/24 01:05:16;;;;;;;;;;;;;;;1.10;100.00;96769.84;1039024;28;19929;-73
2022/03/24 01:05:48;;;;;;;;;;;;;;;1.08;100.00;96762.28;1035097;28;19925;-71
2022/03/24 01:06:18;;;;;;;;;;;;;;;1.03;100.00;96768.94;1035140;28;19924;-73
2022/03/24 01:06:49;;;;;;;;;;;;;;;0.99;100.00;96762.53;1035786;28;20357;-73
2022/03/24 01:07:19;;;;;;;;;;;;;;;1.00;100.00;96764.13;1039242;28;19925;-72
2022/03/24 01:07:50;;;;;;;;;;;;;;;0.95;100.00;96764.66;1043268;28;19975;-71
2022/03/24 01:08:22;;;;;;;;;;;;;;;0.92;100.00;96773.56;1043161;28;19932;-71
2022/03/24 01:08:52;;;;;;;;;;;;;;;0.92;100.00;96776.16;1039250;28;19963;-71
2022/03/24 01:09:22;;;;;;;;;;;;;;;1.00;100.00;96770.09;1038425;28;19959;-73
2022/03/24 01:09:53;;;;;;;;;;;;;;;0.98;100.00;96766.91;1035327;28;19921;-71
2022/03/24 01:10:23;;;;;;;;;;;;;;;0.94;100.00;96771.63;1036780;28;19922;-71
2022/03/24 01:10:55;;;;;;;;;;;;;;;0.93;100.00;96770.00;1030782;28;19921;-71
2022/03/24 01:11:25;;;;;;;;;;;;;;;0.92;100.00;96775.34;1031109;28;20319;-71
2022/03/24 01:11:56;;;;;;;;;;;;;;;0.93;100.00;96774.38;1035093;28;20015;-72
2022/03/24 01:12:26;;;;;;;;;;;;;;;0.89;100.00;96767.94;1035370;28;20367;-73
2022/03/24 01:12:59;;;;;;;;;;;;;;;0.90;100.00;96765.19;1034532;28;19917;-72
2022/03/24 01:13:30;;;;;;;;;;;;;;;0.89;100.00;96770.53;1034940;28;19914;-72
2022/03/24 01:14:01;;;;;;;;;;;;;;;0.84;100.00;96770.25;1035400;28;19975;-73
2022/03/24 01:14:35;;;;;;;;;;;;;;;0.89;100.00;96767.94;1039213;28;20180;-70
2022/03/24 01:15:09;;;;;;;;;;;;;;;0.85;100.00;96766.72;1039762;28;19951;-71
2022/03/24 01:15:42;;;;;;;;;;;;;;;0.84;100.00;96767.66;1038847;28;20007;-71
2022/03/24 01:16:13;;;;;;;;;;;;;;;0.85;100.00;96766.72;1039116;28;19921;-72
2022/03/24 01:16:43;;;;;;;;;;;;;;;0.89;100.00;96770.53;1031799;28;20037;-73
2022/03/24 01:17:16;;;;;;;;;;;;;;;0.92;100.00;96772.78;1035308;28;19924;-73
2022/03/24 01:17:47;;;;;;;;;;;;;;;0.97;100.00;96774.81;1038930;28;20299;-72
2022/03/24 01:18:19;;;;;;;;;;;;;;;0.95;100.00;96777.59;1035580;28;19922;-71
2022/03/24 01:18:50;;;;;;;;;;;;;;;0.91;100.00;96766.00;1038938;28;19913;-72
2022/03/24 01:19:20;;;;;;;;;;;;;;;0.90;100.00;96769.56;1033891;28;19917;-71
2022/03/24 01:19:51;;;;;;;;;;;;;;;0.92;100.00;96763.25;1035016;28;20038;-72
2022/03/24 01:20:22;;;;;;;;;;;;;;;0.96;100.00;96763.69;1035384;28;19953;-72
2022/03/24 01:20:55;;;;;;;;;;;;;;;0.89;100.00;96768.75;1030970;28;20016;-71
2022/03/24 01:21:26;;;;;;;;;;;;;;;0.88;100.00;96766.34;1038935;28;20545;-71
2022/03/24 01:21:56;;;;;;;;;;;;;;;0.88;100.00;96767.16;1035085;28;20368;-71
2022/03/24 01:22:27;;;;;;;;;;;;;;;0.83;100.00;96769.44;1035791;28;19921;-73
2022/03/24 01:22:59;;;;;;;;;;;;;;;0.86;100.00;96768.31;1043125;28;19927;-72
2022/03/24 01:23:30;;;;;;;;;;;;;;;0.84;100.00;96765.09;1039021;28;19925;-72
2022/03/24 01:24:01;;;;;;;;;;;;;;;0.85;100.00;96769.28;1039016;28;19917;-73
2022/03/24 01:24:32;;;;;;;;;;;;;;;0.79;100.00;96765.63;1034668;28;19956;-71
2022/03/24 01:25:02;;;;;;;;;;;;;;;0.77;100.00;96764.19;1031216;28;19945;-73
2022/03/24 01:25:33;;;;;;;;;;;;;;;0.73;100.00;96768.91;1031024;28;19922;-71
2022/03/24 01:26:05;;;;;;;;;;;;;;;0.69;100.00;96768.44;1030800;28;19917;-71
2022/03/24 01:26:36;;;;;;;;;;;;;;;0.66;100.00;96768.78;1030822;28;19918;-71
2022/03/24 01:27:10;;;;;;;;;;;;;;;0.64;100.00;96769.97;1031158;28;19921;-73
2022/03/24 01:27:41;;;;;;;;;;;;;;;0.59;100.00;96769.66;1031392;28;19957;-72
2022/03/24 01:28:13;;;;;;;;;;;;;;;0.55;100.00;96768.41;1027699;28;19965;-72
2022/03/24 01:28:43;;;;;;;;;;;;;;;0.53;100.00;96765.19;1026776;28;19922;-71
2022/03/24 01:29:13;;;;;;;;;;;;;;;0.52;100.00;96764.41;1030183;28;20015;-72
2022/03/24 01:29:44;;;;;;;;;;;;;;;0.50;100.00;96765.53;1030585;28;20406;-72
2022/03/24 01:30:14;;;;;;;;;;;;;;;0.50;100.00;96758.59;1030915;28;20004;-73
2022/03/24 01:30:45;;;;;;;;;;;;;;;0.52;100.00;96761.81;1027008;28;19914;-71
2022/03/24 01:31:16;;;;;;;;;;;;;;;0.51;100.00;96760.22;1026972;28;20385;-72
2022/03/24 01:31:46;;;;;;;;;;;;;;;0.48;100.00;96760.56;1034956;28;20299;-73
2022/03/24 01:32:18;;;;;;;;;;;;;;;0.50;100.00;96763.75;1035044;28;19921;-72
2022/03/24 01:32:49;;;;;;;;;;;;;;;0.53;100.00;96758.25;1035052;28;20489;-71
2022/03/24 01:33:19;;;;;;;;;;;;;;;0.54;100.00;96761.63;1034807;28;19952;-71
2022/03/24 01:33:49;;;;;;;;;;;;;;;0.53;100.00;96768.56;1031005;28;19949;-72
2022/03/24 01:34:20;;;;;;;;;;;;;;;0.50;100.00;96763.75;1035120;28;19925;-71
2022/03/24 01:34:53;;;;;;;;;;;;;;;0.45;100.00;96761.72;1034860;28;19976;-72
2022/03/24 01:35:23;;;;;;;;;;;;;;;0.46;100.00;96762.50;1031140;28;19917;-72
2022/03/24 01:35:53;;;;;;;;;;;;;;;0.51;100.00;96755.06;1030671;28;20451;-74
2022/03/24 01:36:24;;;;;;;;;;;;;;;0.53;100.00;96753.09;1031123;28;19949;-71
2022/03/24 01:36:54;;;;;;;;;;;;;;;0.53;100.00;96766.00;1030952;28;19922;-72
2022/03/24 01:37:25;;;;;;;;;;;;;;;0.58;100.00;96753.38;1034825;28;19917;-71
2022/03/24 01:37:55;;;;;;;;;;;;;;;0.52;100.00;96756.66;1038735;28;20318;-72
2022/03/24 01:38:25;;;;;;;;;;;;;;;0.48;100.00;96757.97;1034746;28;19918;-73
2022/03/24 01:38:56;;;;;;;;;;;;;;;0.45;100.00;96758.31;1038476;28;19921;-70
2022/03/24 01:39:26;;;;;;;;;;;;;;;0.44;100.00;96759.31;1042993;28;20394;-72
2022/03/24 01:39:56;;;;;;;;;;;;;;;0.43;100.00;96757.69;1042838;28;19999;-72
2022/03/24 01:40:27;;;;;;;;;;;;;;;0.41;100.00;96754.50;1047171;28;19920;-73
2022/03/24 01:40:58;;;;;;;;;;;;;;;0.38;100.00;96752.25;1043271;28;19970;-72
2022/03/24 01:41:28;;;;;;;;;;;;;;;0.36;100.00;96762.72;1038800;28;19927;-71
2022/03/24 01:42:02;;;;;;;;;;;;;;;0.36;100.00;96752.41;1038899;28;19976;-71
2022/03/24 01:42:34;;;;;;;;;;;;;;;0.35;100.00;96755.19;1034659;28;19914;-71
2022/03/24 01:43:07;;;;;;;;;;;;;;;0.34;100.00;96756.16;1037019;28;20379;-72
2022/03/24 01:43:39;;;;;;;;;;;;;;;0.34;100.00;96759.53;1043202;28;19940;-71
2022/03/24 01:44:09;;;;;;;;;;;;;;;0.31;100.00;96754.72;1044147;28;19925;-72
2022/03/24 01:44:40;;;;;;;;;;;;;;;0.30;100.00;96750.50;1047431;28;19916;-72
2022/03/24 01:45:10;;;;;;;;;;;;;;;0.32;100.00;96751.16;1047346;28;20710;-72
2022/03/24 01:45:40;;;;;;;;;;;;;;;0.30;100.00;96760.84;1047076;28;20381;-71
2022/03/24 01:46:11;;;;;;;;;;;;;;;0.31;100.00;96751.34;1043306;28;19944;-72
2022/03/24 01:46:54;;;;;;;;;;;;;;;0.40;100.00;96751.09;1042979;28;19916;-71
2022/03/24 01:47:24;;;;;;;;;;;;;;;0.50;100.00;96748.25;1043328;28;20525;-71
2022/03/24 01:47:55;;;;;;;;;;;;;;;0.52;100.00;96748.91;1043106;28;19924;-73
2022/03/24 01:48:26;;;;;;;;;;;;;;;0.58;100.00;96765.50;1040544;28;19921;-72
2022/03/24 01:48:57;;;;;;;;;;;;;;;0.47;100.00;96748.63;1042718;28;19925;-71
2022/03/24 01:49:28;;;;;;;;;;;;;;;0.46;100.00;96752.97;1034648;28;19946;-71
2022/03/24 01:49:58;;;;;;;;;;;;;;;0.43;100.00;96752.53;1030556;28;19918;-73
2022/03/24 01:50:29;;;;;;;;;;;;;;;0.39;100.00;96753.84;1026985;28;20400;-70
2022/03/24 01:50:59;;;;;;;;;;;;;;;0.36;100.00;96755.00;1027082;28;19945;-72
2022/03/24 01:51:29;;;;;;;;;;;;;;;0.34;100.00;96753.59;1030963;28;20437;-72
2022/03/24 01:52:00;;;;;;;;;;;;;;;0.37;100.00;96746.28;1039044;28;19927;-72
2022/03/24 01:52:30;;;;;;;;;;;;;;;0.36;100.00;96755.00;1030643;28;19956;-72
2022/03/24 01:53:01;;;;;;;;;;;;;;;0.33;100.00;96746.78;1027146;28;19926;-71
2022/03/24 01:53:31;;;;;;;;;;;;;;;0.31;100.00;96748.75;1030142;28;20285;-70
2022/03/24 01:54:05;;;;;;;;;;;;;;;0.30;100.00;96747.94;1031108;28;19918;-71
2022/03/24 01:54:38;;;;;;;;;;;;;;;0.31;100.00;96754.72;1036129;28;19928;-73
2022/03/24 01:55:09;;;;;;;;;;;;;;;0.26;100.00;96753.63;1041940;28;19917;-73
2022/03/24 01:55:40;;;;;;;;;;;;;;;0.22;100.00;96753.16;1039251;28;19917;-72
2022/03/24 01:56:11;;;;;;;;;;;;;;;0.25;100.00;96754.59;1039973;28;19999;-72
2022/03/24 01:56:43;;;;;;;;;;;;;;;0.19;100.00;96748.34;1039128;28;19921;-71
2022/03/24 01:57:14;;;;;;;;;;;;;;;0.20;100.00;96749.94;1035864;28;19924;-72
2022/03/24 01:57:44;;;;;;;;;;;;;;;0.19;100.00;96756.88;1035166;28;20456;-73
2022/03/24 01:58:15;;;;;;;;;;;;;;;0.21;100.00;96754.16;1035403;28;19940;-73
2022/03/24 01:58:45;;;;;;;;;;;;;;;0.28;100.00;96751.69;1031513;28;20415;-73
2022/03/24 01:59:16;;;;;;;;;;;;;;;0.25;100.00;96754.59;1034953;28;19914;-73
2022/03/24 01:59:48;;;;;;;;;;;;;;;0.20;100.00;96752.53;1039464;28;19913;-74
2022/03/24 02:00:19;;;;;;;;;;;;;;;0.17;100.00;96755.47;1038452;28;20432;-73
2022/03/24 02:00:51;;;;;;;;;;;;;;;0.18;100.00;96757.88;1043643;28;19917;-72
2022/03/24 02:01:26;;;;;;;;;;;;;;;0.15;100.00;96757.41;1043783;28;20037;-72
2022/03/24 02:01:57;;;;;;;;;;;;;;;0.16;100.00;96762.38;1043600;28;19924;-72
2022/03/24 02:02:27;;;;;;;;;;;;;;;0.15;100.00;96749.66;1042590;28;19912;-71
2022/03/24 02:03:02;;;;;;;;;;;;;;;0.19;100.00;96749.16;1040544;28;19909;-71
2022/03/24 02:03:32;;;;;;;;;;;;;;;0.47;100.00;96754.59;1037067;28;20290;-71
2022/03/24 02:04:06;;;;;;;;;;;;;;;0.48;100.00;96755.41;1034398;28;19910;-72
2022/03/24 02:04:36;;;;;;;;;;;;;;;0.57;100.00;96756.13;1028109;28;20287;-72
2022/03/24 02:05:07;;;;;;;;;;;;;;;0.70;100.00;96752.00;1028368;28;19914;-72
2022/03/24 02:05:39;;;;;;;;;;;;;;;0.84;100.00;96754.75;1028403;28;19914;-72
2022/03/24 02:06:10;;;;;;;;;;;;;;;0.85;100.00;96746.03;1036011;28;19910;-72
2022/03/24 02:06:40;;;;;;;;;;;;;;;0.99;100.00;96750.41;1039611;28;19956;-73
2022/03/24 02:07:10;;;;;;;;;;;;;;;1.04;100.00;96753.28;1035425;28;19914;-73
2022/03/24 02:07:41;;;;;;;;;;;;;;;1.16;100.00;96749.25;1039571;28;19910;-72
2022/03/24 02:08:12;;;;;;;;;;;;;;;1.18;100.00;96749.91;1039642;28;19913;-72
2022/03/24 02:08:42;;;;;;;;;;;;;;;1.20;100.00;96754.06;1037642;28;19934;-73
2022/03/24 02:09:12;;;;;;;;;;;;;;;1.25;100.00;96751.78;1042891;28;19909;-72
2022/03/24 02:09:43;;;;;;;;;;;;;;;1.16;100.00;96751.84;1035326;28;20008;-72
2022/03/24 02:10:16;;;;;;;;;;;;;;;1.11;100.00;96750.78;1035499;28;19910;-72
2022/03/24 02:10:47;;;;;;;;;;;;;;;1.01;100.00;96745.88;1035497;28;19909;-72
2022/03/24 02:11:17;;;;;;;;;;;;;;;1.02;100.00;96751.84;1035988;28;19953;-74
2022/03/24 02:11:48;;;;;;;;;;;;;;;0.99;100.00;96741.88;1035467;28;20004;-73
2022/03/24 02:12:18;;;;;;;;;;;;;;;0.97;100.00;96744.59;1031511;28;19957;-72
2022/03/24 02:12:48;;;;;;;;;;;;;;;0.99;100.00;96744.44;1027556;28;19914;-71
2022/03/24 02:13:18;;;;;;;;;;;;;;;1.05;100.00;96747.13;1023161;28;19914;-71
2022/03/24 02:13:49;;;;;;;;;;;;;;;1.21;100.00;96751.34;1027361;28;20447;-71
2022/03/24 02:14:19;;;;;;;;;;;;;;;1.25;100.00;96746.59;1031387;28;19948;-72
2022/03/24 02:14:49;;;;;;;;;;;;;;;1.17;100.00;96743.13;1035484;28;20046;-71
2022/03/24 02:15:20;;;;;;;;;;;;;;;1.15;100.00;96742.50;1035145;28;19909;-72
2022/03/24 02:15:50;;;;;;;;;;;;;;;1.15;100.00;96747.66;1039675;28;19959;-73
2022/03/24 02:16:27;;;;;;;;;;;;;;;1.25;100.00;96751.78;1039513;28;19909;-71
2022/03/24 02:16:57;;;;;;;;;;;;;;;1.13;100.00;96741.06;1039456;28;19921;-71
2022/03/24 02:17:30;;;;;;;;;;;;;;;1.11;100.00;96743.84;1036223;28;20060;-71
2022/03/24 02:18:01;;;;;;;;;;;;;;;1.10;100.00;96744.78;1039525;28;19909;-73
2022/03/24 02:18:31;;;;;;;;;;;;;;;1.21;100.00;96743.56;1035769;28;20446;-72
2022/03/24 02:19:22;;;;;;;;;;;;;;;1.19;100.00;96745.53;1038961;28;19917;-72
2022/03/24 02:19:57;;;;;;;;;;;;;;;1.10;100.00;96747.38;1043098;28;19942;-72
2022/03/24 02:20:28;;;;;;;;;;;;;;;1.09;100.00;96742.41;1043026;28;19916;-72
2022/03/24 02:20:58;;;;;;;;;;;;;;;1.09;100.00;96747.56;1039330;28;20430;-72
2022/03/24 02:21:28;;;;;;;;;;;;;;;1.16;100.00;96741.50;1039449;28;19913;-72
2022/03/24 02:22:07;;;;;;;;;;;;;;;1.14;100.00;96740.91;1040305;28;19906;-73
2022/03/24 02:22:38;;;;;;;;;;;;;;;1.28;100.00;96747.03;1040651;28;19917;-72
2022/03/24 02:23:15;;;;;;;;;;;;;;;1.36;100.00;96738.38;1031450;28;19996;-72
2022/03/24 02:23:45;;;;;;;;;;;;;;;1.34;100.00;96745.50;1031300;28;20508;-71
2022/03/24 02:24:16;;;;;;;;;;;;;;;1.32;100.00;96734.56;1032259;28;20038;-72
2022/03/24 02:24:47;;;;;;;;;;;;;;;1.27;100.00;96737.66;1034615;28;19918;-71
2022/03/24 02:25:17;;;;;;;;;;;;;;;1.29;100.00;96738.31;1039627;28;19944;-73
2022/03/24 02:25:47;;;;;;;;;;;;;;;1.21;100.00;96740.16;1035305;28;20012;-71
2022/03/24 02:26:17;;;;;;;;;;;;;;;1.16;100.00;96735.53;1030772;28;19917;-72
2022/03/24 02:26:48;;;;;;;;;;;;;;;1.11;100.00;96738.66;1027105;28;19914;-73
2022/03/24 02:27:18;;;;;;;;;;;;;;;1.10;100.00;96734.47;1027304;28;19918;-72
2022/03/24 02:27:52;;;;;;;;;;;;;;;1.04;100.00;96735.19;1036802;28;19975;-73
2022/03/24 02:28:22;;;;;;;;;;;;;;;1.01;100.00;96737.34;1043523;28;19964;-72
2022/03/24 02:28:55;;;;;;;;;;;;;;;1.00;100.00;96738.28;1039551;28;20281;-73
2022/03/24 02:29:26;;;;;;;;;;;;;;;0.98;100.00;96735.91;1040091;28;19988;-71
2022/03/24 02:29:57;;;;;;;;;;;;;;;1.03;100.00;96730.97;1039424;28;19917;-72
2022/03/24 02:30:29;;;;;;;;;;;;;;;0.94;100.00;96734.66;1031855;28;19918;-71
2022/03/24 02:30:59;;;;;;;;;;;;;;;0.90;100.00;96731.59;1035465;28;19972;-70
2022/03/24 02:31:30;;;;;;;;;;;;;;;0.89;100.00;96729.19;1035781;28;19917;-71
2022/03/24 02:32:01;;;;;;;;;;;;;;;0.96;100.00;96737.03;1043921;28;19921;-72
2022/03/24 02:32:31;;;;;;;;;;;;;;;0.85;100.00;96730.53;1043692;28;19909;-71
2022/03/24 02:33:01;;;;;;;;;;;;;;;0.84;100.00;96739.25;1035280;28;19914;-72
2022/03/24 02:33:32;;;;;;;;;;;;;;;0.79;100.00;96736.41;1035482;28;20451;-72
2022/03/24 02:34:52;;;;;;;;;;;;;;;0.69;100.00;96740.03;1042016;28;20079;-72
2022/03/24 02:35:22;;;;;;;;;;;;;;;0.68;100.00;96740.22;1043657;28;19968;-72
2022/03/24 02:35:52;;;;;;;;;;;;;;;0.67;100.00;96743.75;1042341;28;19908;-71
2022/03/24 02:36:23;;;;;;;;;;;;;;;0.65;100.00;96736.22;1043345;28;19913;-72
2022/03/24 02:36:53;;;;;;;;;;;;;;;0.59;100.00;96736.09;1035541;28;20272;-72
2022/03/24 02:37:24;;;;;;;;;;;;;;;0.64;100.00;96734.59;1031434;28;20415;-73
2022/03/24 02:37:54;;;;;;;;;;;;;;;0.62;100.00;96736.56;1035412;28;19921;-74
2022/03/24 02:38:25;;;;;;;;;;;;;;;0.57;100.00;96732.88;1031226;28;19997;-73
2022/03/24 02:38:55;;;;;;;;;;;;;;;0.57;100.00;96736.28;1030742;28;19922;-71
2022/03/24 02:39:25;;;;;;;;;;;;;;;0.60;100.00;96738.50;1027208;28;19918;-73
2022/03/24 02:39:56;;;;;;;;;;;;;;;0.55;100.00;96740.81;1031382;28;20064;-73
2022/03/24 02:40:27;;;;;;;;;;;;;;;0.57;100.00;96743.22;1035239;28;19924;-72
2022/03/24 02:40:57;;;;;;;;;;;;;;;0.59;100.00;96730.94;1039693;28;19923;-72
2022/03/24 02:41:27;;;;;;;;;;;;;;;0.64;100.00;96738.97;1035217;28;19952;-73
2022/03/24 02:41:58;;;;;;;;;;;;;;;0.69;100.00;96736.66;1035545;28;19925;-72
2022/03/24 02:42:29;;;;;;;;;;;;;;;0.72;100.00;96738.88;1039384;28;19913;-73
2022/03/24 02:43:01;;;;;;;;;;;;;;;0.74;100.00;96738.69;1035399;28;19928;-72